sensor_id;sensor_type;location;lat;lon;timestamp;temperature;humidity
21246;DHT22;10781;50.928;4.440;2023-02-01T00:00:11;7.70;99.90
21246;DHT22;10781;50.928;4.440;2023-02-01T00:02:37;7.80;99.90
21246;DHT22;10781;50.928;4.440;2023-02-01T00:05:07;7.80;99.90
21246;DHT22;10781;50.928;4.440;2023-02-01T00:07:34;7.80;99.90
21246;DHT22;10781;50.928;4.440;2023-02-01T00:10:00;7.70;99.90
21246;DHT22;10781;50.928;4.440;2023-02-01T00:12:25;7.80;99.90
21246;DHT22;10781;50.928;4.440;2023-02-01T00:14:51;7.70;99.90
21246;DHT22;10781;50.928;4.440;2023-02-01T00:17:17;7.60;99.90
21246;DHT22;10781;50.928;4.440;2023-02-01T00:19:43;7.60;99.90
21246;DHT22;10781;50.928;4.440;2023-02-01T00:22:08;7.70;99.90
21246;DHT22;10781;50.928;4.440;2023-02-01T00:24:34;7.60;99.90
21246;DHT22;10781;50.928;4.440;2023-02-01T00:26:59;7.70;99.90
21246;DHT22;10781;50.928;4.440;2023-02-01T00:29:25;7.80;99.90
21246;DHT22;10781;50.928;4.440;2023-02-01T00:31:51;7.80;99.90
21246;DHT22;10781;50.928;4.440;2023-02-01T00:34:18;7.80;99.90
21246;DHT22;10781;50.928;4.440;2023-02-01T00:36:44;7.80;99.90
21246;DHT22;10781;50.928;4.440;2023-02-01T00:39:10;7.80;99.90
21246;DHT22;10781;50.928;4.440;2023-02-01T00:41:36;8.00;99.90
21246;DHT22;10781;50.928;4.440;2023-02-01T00:44:01;7.90;99.90
21246;DHT22;10781;50.928;4.440;2023-02-01T00:46:27;7.90;99.90
21246;DHT22;10781;50.928;4.440;2023-02-01T00:48:54;7.90;99.90
21246;DHT22;10781;50.928;4.440;2023-02-01T00:51:22;7.90;99.90
21246;DHT22;10781;50.928;4.440;2023-02-01T00:53:48;7.90;99.90
21246;DHT22;10781;50.928;4.440;2023-02-01T00:56:15;7.90;99.90
21246;DHT22;10781;50.928;4.440;2023-02-01T00:58:41;7.90;99.90
21246;DHT22;10781;50.928;4.440;2023-02-01T01:03:40;7.80;99.90
21246;DHT22;10781;50.928;4.440;2023-02-01T01:06:10;7.80;99.90
21246;DHT22;10781;50.928;4.440;2023-02-01T01:08:37;7.80;99.90
21246;DHT22;10781;50.928;4.440;2023-02-01T01:11:12;7.80;99.90
21246;DHT22;10781;50.928;4.440;2023-02-01T01:13:38;7.90;99.90
21246;DHT22;10781;50.928;4.440;2023-02-01T01:16:05;7.90;99.90
21246;DHT22;10781;50.928;4.440;2023-02-01T01:18:32;7.90;99.90
21246;DHT22;10781;50.928;4.440;2023-02-01T01:20:58;7.90;99.90
21246;DHT22;10781;50.928;4.440;2023-02-01T01:23:24;7.90;99.90
21246;DHT22;10781;50.928;4.440;2023-02-01T01:25:50;7.90;99.90
21246;DHT22;10781;50.928;4.440;2023-02-01T01:28:16;7.90;99.90
21246;DHT22;10781;50.928;4.440;2023-02-01T01:30:41;7.90;99.90
21246;DHT22;10781;50.928;4.440;2023-02-01T01:33:07;7.70;99.90
21246;DHT22;10781;50.928;4.440;2023-02-01T01:35:33;7.80;99.90
21246;DHT22;10781;50.928;4.440;2023-02-01T01:38:00;7.80;99.90
21246;DHT22;10781;50.928;4.440;2023-02-01T01:40:27;7.80;99.90
21246;DHT22;10781;50.928;4.440;2023-02-01T01:42:53;7.70;99.90
21246;DHT22;10781;50.928;4.440;2023-02-01T01:48:00;7.70;99.90
21246;DHT22;10781;50.928;4.440;2023-02-01T01:50:36;7.70;99.90
21246;DHT22;10781;50.928;4.440;2023-02-01T01:53:05;7.80;99.90
21246;DHT22;10781;50.928;4.440;2023-02-01T01:55:37;7.70;99.90
21246;DHT22;10781;50.928;4.440;2023-02-01T01:58:05;7.80;99.90
21246;DHT22;10781;50.928;4.440;2023-02-01T02:00:33;7.70;99.90
21246;DHT22;10781;50.928;4.440;2023-02-01T02:03:07;7.70;99.90
21246;DHT22;10781;50.928;4.440;2023-02-01T02:05:34;7.60;99.90
21246;DHT22;10781;50.928;4.440;2023-02-01T02:08:00;7.60;99.90
21246;DHT22;10781;50.928;4.440;2023-02-01T02:10:29;7.50;99.90
21246;DHT22;10781;50.928;4.440;2023-02-01T02:13:16;7.60;99.90
21246;DHT22;10781;50.928;4.440;2023-02-01T02:15:47;7.30;99.90
21246;DHT22;10781;50.928;4.440;2023-02-01T02:18:32;7.20;99.90
21246;DHT22;10781;50.928;4.440;2023-02-01T02:21:12;7.20;99.90
21246;DHT22;10781;50.928;4.440;2023-02-01T02:26:46;7.20;99.90
21246;DHT22;10781;50.928;4.440;2023-02-01T02:29:29;7.10;99.90
21246;DHT22;10781;50.928;4.440;2023-02-01T02:34:59;7.10;99.90
21246;DHT22;10781;50.928;4.440;2023-02-01T02:37:38;7.00;99.90
21246;DHT22;10781;50.928;4.440;2023-02-01T02:43:03;7.10;99.90
21246;DHT22;10781;50.928;4.440;2023-02-01T02:45:54;7.10;99.90
21246;DHT22;10781;50.928;4.440;2023-02-01T02:48:54;7.10;99.90
21246;DHT22;10781;50.928;4.440;2023-02-01T02:51:32;7.10;99.90
21246;DHT22;10781;50.928;4.440;2023-02-01T02:54:23;7.10;99.90
21246;DHT22;10781;50.928;4.440;2023-02-01T02:57:10;7.00;99.90
21246;DHT22;10781;50.928;4.440;2023-02-01T02:59:57;7.00;99.90
21246;DHT22;10781;50.928;4.440;2023-02-01T03:02:43;7.00;99.90
21246;DHT22;10781;50.928;4.440;2023-02-01T03:05:36;6.90;99.90
21246;DHT22;10781;50.928;4.440;2023-02-01T03:10:48;6.90;99.90
21246;DHT22;10781;50.928;4.440;2023-02-01T03:13:35;6.90;99.90
21246;DHT22;10781;50.928;4.440;2023-02-01T03:16:24;6.90;99.90
21246;DHT22;10781;50.928;4.440;2023-02-01T03:19:00;6.80;99.90
21246;DHT22;10781;50.928;4.440;2023-02-01T03:21:41;6.80;99.90
21246;DHT22;10781;50.928;4.440;2023-02-01T03:24:18;6.80;99.90
21246;DHT22;10781;50.928;4.440;2023-02-01T03:26:54;6.70;99.90
21246;DHT22;10781;50.928;4.440;2023-02-01T03:29:27;6.80;99.90
21246;DHT22;10781;50.928;4.440;2023-02-01T03:31:55;6.80;99.90
21246;DHT22;10781;50.928;4.440;2023-02-01T03:34:21;6.70;99.90
21246;DHT22;10781;50.928;4.440;2023-02-01T03:37:10;6.80;99.90
21246;DHT22;10781;50.928;4.440;2023-02-01T03:39:47;6.80;99.90
21246;DHT22;10781;50.928;4.440;2023-02-01T03:42:21;6.80;99.90
21246;DHT22;10781;50.928;4.440;2023-02-01T03:47:53;6.80;99.90
21246;DHT22;10781;50.928;4.440;2023-02-01T03:50:20;6.90;99.90
21246;DHT22;10781;50.928;4.440;2023-02-01T03:52:58;6.80;99.90
21246;DHT22;10781;50.928;4.440;2023-02-01T03:55:25;6.80;99.90
21246;DHT22;10781;50.928;4.440;2023-02-01T03:58:06;6.80;99.90
21246;DHT22;10781;50.928;4.440;2023-02-01T04:00:33;6.80;99.90
21246;DHT22;10781;50.928;4.440;2023-02-01T04:02:58;6.80;99.90
21246;DHT22;10781;50.928;4.440;2023-02-01T04:05:24;6.80;99.90
21246;DHT22;10781;50.928;4.440;2023-02-01T04:07:50;6.70;99.90
21246;DHT22;10781;50.928;4.440;2023-02-01T04:10:16;6.70;99.90
21246;DHT22;10781;50.928;4.440;2023-02-01T04:12:42;6.60;99.90
21246;DHT22;10781;50.928;4.440;2023-02-01T04:15:08;6.60;99.90
21246;DHT22;10781;50.928;4.440;2023-02-01T04:17:34;6.60;99.90
21246;DHT22;10781;50.928;4.440;2023-02-01T04:19:59;6.60;99.90
21246;DHT22;10781;50.928;4.440;2023-02-01T04:22:25;6.50;99.90
21246;DHT22;10781;50.928;4.440;2023-02-01T04:24:51;6.50;99.90
21246;DHT22;10781;50.928;4.440;2023-02-01T04:27:16;6.40;99.90
21246;DHT22;10781;50.928;4.440;2023-02-01T04:29:42;6.40;99.90
21246;DHT22;10781;50.928;4.440;2023-02-01T04:32:08;6.50;99.90
21246;DHT22;10781;50.928;4.440;2023-02-01T04:34:33;6.50;99.90
21246;DHT22;10781;50.928;4.440;2023-02-01T04:36:59;6.40;99.90
21246;DHT22;10781;50.928;4.440;2023-02-01T04:39:25;6.40;99.90
21246;DHT22;10781;50.928;4.440;2023-02-01T04:41:50;6.40;99.90
21246;DHT22;10781;50.928;4.440;2023-02-01T04:44:17;6.40;99.90
21246;DHT22;10781;50.928;4.440;2023-02-01T04:46:44;6.30;99.90
21246;DHT22;10781;50.928;4.440;2023-02-01T04:49:11;6.40;99.90
21246;DHT22;10781;50.928;4.440;2023-02-01T04:51:37;6.30;99.90
21246;DHT22;10781;50.928;4.440;2023-02-01T04:54:03;6.20;99.90
21246;DHT22;10781;50.928;4.440;2023-02-01T04:56:29;6.30;99.90
21246;DHT22;10781;50.928;4.440;2023-02-01T04:58:54;6.30;99.90
21246;DHT22;10781;50.928;4.440;2023-02-01T05:01:21;6.30;99.90
21246;DHT22;10781;50.928;4.440;2023-02-01T05:03:47;6.20;99.90
21246;DHT22;10781;50.928;4.440;2023-02-01T05:06:13;6.20;99.90
21246;DHT22;10781;50.928;4.440;2023-02-01T05:08:39;6.20;99.90
21246;DHT22;10781;50.928;4.440;2023-02-01T05:11:05;6.10;99.90
21246;DHT22;10781;50.928;4.440;2023-02-01T05:13:30;6.10;99.90
21246;DHT22;10781;50.928;4.440;2023-02-01T05:16:15;6.00;99.90
21246;DHT22;10781;50.928;4.440;2023-02-01T05:18:41;6.10;99.90
21246;DHT22;10781;50.928;4.440;2023-02-01T05:21:07;6.10;99.90
21246;DHT22;10781;50.928;4.440;2023-02-01T05:23:32;6.10;99.90
21246;DHT22;10781;50.928;4.440;2023-02-01T05:26:18;6.00;99.90
21246;DHT22;10781;50.928;4.440;2023-02-01T05:28:44;6.00;99.90
21246;DHT22;10781;50.928;4.440;2023-02-01T05:31:10;6.00;99.90
21246;DHT22;10781;50.928;4.440;2023-02-01T05:33:36;6.00;99.90
21246;DHT22;10781;50.928;4.440;2023-02-01T05:36:02;6.00;99.90
21246;DHT22;10781;50.928;4.440;2023-02-01T05:38:27;5.90;99.90
21246;DHT22;10781;50.928;4.440;2023-02-01T05:40:55;5.90;99.90
21246;DHT22;10781;50.928;4.440;2023-02-01T05:43:21;5.90;99.90
21246;DHT22;10781;50.928;4.440;2023-02-01T05:45:47;5.90;99.90
21246;DHT22;10781;50.928;4.440;2023-02-01T05:48:13;5.90;99.90
21246;DHT22;10781;50.928;4.440;2023-02-01T05:50:38;5.90;99.90
21246;DHT22;10781;50.928;4.440;2023-02-01T05:53:04;5.90;99.90
21246;DHT22;10781;50.928;4.440;2023-02-01T05:55:30;6.00;99.90
21246;DHT22;10781;50.928;4.440;2023-02-01T05:57:55;6.00;99.90
21246;DHT22;10781;50.928;4.440;2023-02-01T06:00:21;6.00;99.90
21246;DHT22;10781;50.928;4.440;2023-02-01T06:02:47;5.90;99.90
21246;DHT22;10781;50.928;4.440;2023-02-01T06:05:13;5.90;99.90
21246;DHT22;10781;50.928;4.440;2023-02-01T06:07:38;5.90;99.90
21246;DHT22;10781;50.928;4.440;2023-02-01T06:10:04;5.80;99.90
21246;DHT22;10781;50.928;4.440;2023-02-01T06:12:30;5.80;99.90
21246;DHT22;10781;50.928;4.440;2023-02-01T06:14:56;5.80;99.90
21246;DHT22;10781;50.928;4.440;2023-02-01T06:17:21;5.80;99.90
21246;DHT22;10781;50.928;4.440;2023-02-01T06:19:47;5.80;99.90
21246;DHT22;10781;50.928;4.440;2023-02-01T06:22:14;5.80;99.90
21246;DHT22;10781;50.928;4.440;2023-02-01T06:24:39;5.80;99.90
21246;DHT22;10781;50.928;4.440;2023-02-01T06:27:06;5.80;99.90
21246;DHT22;10781;50.928;4.440;2023-02-01T06:29:32;5.70;99.90
21246;DHT22;10781;50.928;4.440;2023-02-01T06:31:58;5.70;99.90
21246;DHT22;10781;50.928;4.440;2023-02-01T06:34:24;5.80;99.90
21246;DHT22;10781;50.928;4.440;2023-02-01T06:36:50;5.70;99.90
21246;DHT22;10781;50.928;4.440;2023-02-01T06:39:16;5.80;99.90
21246;DHT22;10781;50.928;4.440;2023-02-01T06:41:48;5.70;99.90
21246;DHT22;10781;50.928;4.440;2023-02-01T06:44:15;5.70;99.90
21246;DHT22;10781;50.928;4.440;2023-02-01T06:46:40;5.70;99.90
21246;DHT22;10781;50.928;4.440;2023-02-01T06:49:06;5.70;99.90
21246;DHT22;10781;50.928;4.440;2023-02-01T06:51:32;5.70;99.90
21246;DHT22;10781;50.928;4.440;2023-02-01T06:53:58;5.70;99.90
21246;DHT22;10781;50.928;4.440;2023-02-01T06:56:24;5.90;99.90
21246;DHT22;10781;50.928;4.440;2023-02-01T06:58:50;5.90;99.90
21246;DHT22;10781;50.928;4.440;2023-02-01T07:01:16;5.80;99.90
21246;DHT22;10781;50.928;4.440;2023-02-01T07:03:42;5.80;99.90
21246;DHT22;10781;50.928;4.440;2023-02-01T07:06:09;5.80;99.90
21246;DHT22;10781;50.928;4.440;2023-02-01T07:08:36;5.80;99.90
21246;DHT22;10781;50.928;4.440;2023-02-01T07:11:08;5.90;99.90
21246;DHT22;10781;50.928;4.440;2023-02-01T07:13:34;5.90;99.90
21246;DHT22;10781;50.928;4.440;2023-02-01T07:16:06;5.90;99.90
21246;DHT22;10781;50.928;4.440;2023-02-01T07:18:32;5.90;99.90
21246;DHT22;10781;50.928;4.440;2023-02-01T07:20:59;6.00;99.90
21246;DHT22;10781;50.928;4.440;2023-02-01T07:23:24;6.00;99.90
21246;DHT22;10781;50.928;4.440;2023-02-01T07:25:55;5.90;99.90
21246;DHT22;10781;50.928;4.440;2023-02-01T07:28:21;5.90;99.90
21246;DHT22;10781;50.928;4.440;2023-02-01T07:30:47;6.00;99.90
21246;DHT22;10781;50.928;4.440;2023-02-01T07:33:23;5.90;99.90
21246;DHT22;10781;50.928;4.440;2023-02-01T07:35:49;5.90;99.90
21246;DHT22;10781;50.928;4.440;2023-02-01T07:38:16;5.90;99.90
21246;DHT22;10781;50.928;4.440;2023-02-01T07:40:42;5.90;99.90
21246;DHT22;10781;50.928;4.440;2023-02-01T07:43:08;6.00;99.90
21246;DHT22;10781;50.928;4.440;2023-02-01T07:45:35;6.00;99.90
21246;DHT22;10781;50.928;4.440;2023-02-01T07:48:02;6.00;99.90
21246;DHT22;10781;50.928;4.440;2023-02-01T07:50:28;5.90;99.90
21246;DHT22;10781;50.928;4.440;2023-02-01T07:52:53;6.00;99.90
21246;DHT22;10781;50.928;4.440;2023-02-01T07:55:21;6.00;99.90
21246;DHT22;10781;50.928;4.440;2023-02-01T07:57:46;6.00;99.90
21246;DHT22;10781;50.928;4.440;2023-02-01T08:00:13;6.00;99.90
21246;DHT22;10781;50.928;4.440;2023-02-01T08:03:00;6.10;99.90
21246;DHT22;10781;50.928;4.440;2023-02-01T08:05:27;6.20;99.90
21246;DHT22;10781;50.928;4.440;2023-02-01T08:07:52;6.30;99.90
21246;DHT22;10781;50.928;4.440;2023-02-01T08:10:19;6.50;99.90
21246;DHT22;10781;50.928;4.440;2023-02-01T08:12:45;6.60;99.90
21246;DHT22;10781;50.928;4.440;2023-02-01T08:15:18;6.60;99.90
21246;DHT22;10781;50.928;4.440;2023-02-01T08:17:50;6.60;99.90
21246;DHT22;10781;50.928;4.440;2023-02-01T08:20:17;6.60;99.90
21246;DHT22;10781;50.928;4.440;2023-02-01T08:22:43;6.60;99.90
21246;DHT22;10781;50.928;4.440;2023-02-01T08:25:10;6.60;99.90
21246;DHT22;10781;50.928;4.440;2023-02-01T08:27:36;6.60;99.90
21246;DHT22;10781;50.928;4.440;2023-02-01T08:30:03;6.70;99.90
21246;DHT22;10781;50.928;4.440;2023-02-01T08:32:28;6.70;99.90
21246;DHT22;10781;50.928;4.440;2023-02-01T08:34:54;6.70;99.90
21246;DHT22;10781;50.928;4.440;2023-02-01T08:37:20;6.80;99.90
21246;DHT22;10781;50.928;4.440;2023-02-01T08:39:45;6.80;99.90
21246;DHT22;10781;50.928;4.440;2023-02-01T08:42:12;6.80;99.90
21246;DHT22;10781;50.928;4.440;2023-02-01T08:44:57;6.90;99.90
21246;DHT22;10781;50.928;4.440;2023-02-01T08:47:22;7.00;99.90
21246;DHT22;10781;50.928;4.440;2023-02-01T08:49:48;7.00;99.90
21246;DHT22;10781;50.928;4.440;2023-02-01T08:52:14;7.00;99.90
21246;DHT22;10781;50.928;4.440;2023-02-01T08:54:39;7.10;99.90
21246;DHT22;10781;50.928;4.440;2023-02-01T08:57:06;7.10;99.90
21246;DHT22;10781;50.928;4.440;2023-02-01T08:59:32;7.20;99.90
21246;DHT22;10781;50.928;4.440;2023-02-01T09:01:58;7.30;99.90
21246;DHT22;10781;50.928;4.440;2023-02-01T09:04:23;7.30;99.90
21246;DHT22;10781;50.928;4.440;2023-02-01T09:06:49;7.30;99.90
21246;DHT22;10781;50.928;4.440;2023-02-01T09:09:14;7.30;99.90
21246;DHT22;10781;50.928;4.440;2023-02-01T09:11:40;7.30;99.90
21246;DHT22;10781;50.928;4.440;2023-02-01T09:14:06;7.30;99.90
21246;DHT22;10781;50.928;4.440;2023-02-01T09:16:31;7.30;99.90
21246;DHT22;10781;50.928;4.440;2023-02-01T09:18:57;7.40;99.90
21246;DHT22;10781;50.928;4.440;2023-02-01T09:21:23;7.50;99.90
21246;DHT22;10781;50.928;4.440;2023-02-01T09:23:50;7.60;99.90
21246;DHT22;10781;50.928;4.440;2023-02-01T09:26:16;7.60;99.90
21246;DHT22;10781;50.928;4.440;2023-02-01T09:28:42;7.60;99.90
21246;DHT22;10781;50.928;4.440;2023-02-01T09:31:07;7.60;99.90
21246;DHT22;10781;50.928;4.440;2023-02-01T09:33:33;7.70;99.90
21246;DHT22;10781;50.928;4.440;2023-02-01T09:36:01;7.80;99.90
21246;DHT22;10781;50.928;4.440;2023-02-01T09:38:27;7.90;99.90
21246;DHT22;10781;50.928;4.440;2023-02-01T09:40:54;7.90;99.90
21246;DHT22;10781;50.928;4.440;2023-02-01T09:46:30;8.00;99.90
21246;DHT22;10781;50.928;4.440;2023-02-01T09:49:00;7.90;99.90
21246;DHT22;10781;50.928;4.440;2023-02-01T09:51:41;8.00;99.90
21246;DHT22;10781;50.928;4.440;2023-02-01T09:56:51;8.10;99.90
21246;DHT22;10781;50.928;4.440;2023-02-01T09:59:40;8.20;99.90
21246;DHT22;10781;50.928;4.440;2023-02-01T10:02:20;8.30;99.90
21246;DHT22;10781;50.928;4.440;2023-02-01T10:04:47;8.30;99.90
21246;DHT22;10781;50.928;4.440;2023-02-01T10:12:48;8.30;99.90
21246;DHT22;10781;50.928;4.440;2023-02-01T10:18:03;8.40;99.90
21246;DHT22;10781;50.928;4.440;2023-02-01T10:25:55;8.40;99.90
21246;DHT22;10781;50.928;4.440;2023-02-01T10:28:23;8.40;99.90
21246;DHT22;10781;50.928;4.440;2023-02-01T10:30:53;8.50;99.90
21246;DHT22;10781;50.928;4.440;2023-02-01T10:33:36;8.50;99.90
21246;DHT22;10781;50.928;4.440;2023-02-01T10:36:23;8.70;99.90
21246;DHT22;10781;50.928;4.440;2023-02-01T10:38:50;8.70;99.90
21246;DHT22;10781;50.928;4.440;2023-02-01T10:41:21;8.80;99.90
21246;DHT22;10781;50.928;4.440;2023-02-01T10:43:57;8.80;99.90
21246;DHT22;10781;50.928;4.440;2023-02-01T10:46:23;8.90;99.90
21246;DHT22;10781;50.928;4.440;2023-02-01T10:48:50;9.00;99.90
21246;DHT22;10781;50.928;4.440;2023-02-01T10:52:01;9.00;99.90
21246;DHT22;10781;50.928;4.440;2023-02-01T10:54:38;9.10;99.90
21246;DHT22;10781;50.928;4.440;2023-02-01T10:57:21;9.20;99.90
21246;DHT22;10781;50.928;4.440;2023-02-01T10:59:49;9.40;99.90
21246;DHT22;10781;50.928;4.440;2023-02-01T11:02:25;9.50;99.90
21246;DHT22;10781;50.928;4.440;2023-02-01T11:05:05;9.60;99.90
21246;DHT22;10781;50.928;4.440;2023-02-01T11:07:34;9.70;99.90
21246;DHT22;10781;50.928;4.440;2023-02-01T11:10:01;9.80;99.90
21246;DHT22;10781;50.928;4.440;2023-02-01T11:12:36;10.00;99.90
21246;DHT22;10781;50.928;4.440;2023-02-01T11:17:42;10.60;99.90
21246;DHT22;10781;50.928;4.440;2023-02-01T11:20:37;10.80;99.90
21246;DHT22;10781;50.928;4.440;2023-02-01T11:23:04;10.90;99.90
21246;DHT22;10781;50.928;4.440;2023-02-01T11:25:32;10.60;99.90
21246;DHT22;10781;50.928;4.440;2023-02-01T11:28:01;10.50;99.90
21246;DHT22;10781;50.928;4.440;2023-02-01T11:30:37;10.70;99.90
21246;DHT22;10781;50.928;4.440;2023-02-01T11:33:04;10.80;99.90
21246;DHT22;10781;50.928;4.440;2023-02-01T11:35:30;10.70;99.90
21246;DHT22;10781;50.928;4.440;2023-02-01T11:37:58;10.60;99.90
21246;DHT22;10781;50.928;4.440;2023-02-01T11:40:50;10.30;99.90
21246;DHT22;10781;50.928;4.440;2023-02-01T11:43:27;10.10;99.90
21246;DHT22;10781;50.928;4.440;2023-02-01T11:45:58;10.00;99.90
21246;DHT22;10781;50.928;4.440;2023-02-01T11:48:27;10.10;99.90
21246;DHT22;10781;50.928;4.440;2023-02-01T11:59:11;10.40;99.90
21246;DHT22;10781;50.928;4.440;2023-02-01T12:15:52;11.10;99.90
21246;DHT22;10781;50.928;4.440;2023-02-01T12:23:53;11.70;99.90
21246;DHT22;10781;50.928;4.440;2023-02-01T12:37:44;11.90;99.90
21246;DHT22;10781;50.928;4.440;2023-02-01T12:43:25;11.90;99.90
21246;DHT22;10781;50.928;4.440;2023-02-01T12:45:58;11.70;99.90
21246;DHT22;10781;50.928;4.440;2023-02-01T12:48:33;11.70;99.90
21246;DHT22;10781;50.928;4.440;2023-02-01T12:51:04;11.60;99.90
21246;DHT22;10781;50.928;4.440;2023-02-01T12:53:51;11.40;99.90
21246;DHT22;10781;50.928;4.440;2023-02-01T12:58:59;11.60;99.90
21246;DHT22;10781;50.928;4.440;2023-02-01T13:01:46;11.70;99.90
21246;DHT22;10781;50.928;4.440;2023-02-01T13:04:25;11.90;99.90
21246;DHT22;10781;50.928;4.440;2023-02-01T13:06:55;11.90;99.90
21246;DHT22;10781;50.928;4.440;2023-02-01T13:12:29;12.30;99.90
21246;DHT22;10781;50.928;4.440;2023-02-01T13:15:02;12.10;99.90
21246;DHT22;10781;50.928;4.440;2023-02-01T13:17:31;11.90;99.90
21246;DHT22;10781;50.928;4.440;2023-02-01T13:20:05;11.80;99.90
21246;DHT22;10781;50.928;4.440;2023-02-01T13:22:51;11.70;99.90
21246;DHT22;10781;50.928;4.440;2023-02-01T13:25:29;11.80;99.90
21246;DHT22;10781;50.928;4.440;2023-02-01T13:28:03;11.90;99.90
21246;DHT22;10781;50.928;4.440;2023-02-01T13:30:41;11.80;99.90
21246;DHT22;10781;50.928;4.440;2023-02-01T13:44:16;12.20;99.90
21246;DHT22;10781;50.928;4.440;2023-02-01T13:46:52;12.20;99.90
21246;DHT22;10781;50.928;4.440;2023-02-01T13:49:30;11.90;99.90
21246;DHT22;10781;50.928;4.440;2023-02-01T13:51:58;11.70;99.90
21246;DHT22;10781;50.928;4.440;2023-02-01T13:54:25;11.50;99.90
21246;DHT22;10781;50.928;4.440;2023-02-01T13:56:51;11.50;99.90
21246;DHT22;10781;50.928;4.440;2023-02-01T14:08:22;11.60;99.90
21246;DHT22;10781;50.928;4.440;2023-02-01T14:10:52;11.50;99.90
21246;DHT22;10781;50.928;4.440;2023-02-01T14:16:15;11.40;99.90
21246;DHT22;10781;50.928;4.440;2023-02-01T14:21:29;11.30;99.90
21246;DHT22;10781;50.928;4.440;2023-02-01T14:26:44;11.20;99.90
21246;DHT22;10781;50.928;4.440;2023-02-01T14:32:00;11.20;99.90
21246;DHT22;10781;50.928;4.440;2023-02-01T14:34:40;11.20;99.90
21246;DHT22;10781;50.928;4.440;2023-02-01T14:56:00;11.00;99.90
21246;DHT22;10781;50.928;4.440;2023-02-01T14:59:00;10.80;99.90
21246;DHT22;10781;50.928;4.440;2023-02-01T15:01:34;10.60;99.90
21246;DHT22;10781;50.928;4.440;2023-02-01T15:06:44;10.60;99.90
21246;DHT22;10781;50.928;4.440;2023-02-01T15:09:13;10.60;99.90
21246;DHT22;10781;50.928;4.440;2023-02-01T15:14:35;10.70;99.90
21246;DHT22;10781;50.928;4.440;2023-02-01T15:17:03;10.70;99.90
21246;DHT22;10781;50.928;4.440;2023-02-01T15:19:55;10.60;99.90
21246;DHT22;10781;50.928;4.440;2023-02-01T15:22:22;10.60;99.90
21246;DHT22;10781;50.928;4.440;2023-02-01T15:24:56;10.60;99.90
21246;DHT22;10781;50.928;4.440;2023-02-01T15:27:22;10.60;99.90
21246;DHT22;10781;50.928;4.440;2023-02-01T15:29:48;10.50;99.90
21246;DHT22;10781;50.928;4.440;2023-02-01T15:32:31;10.40;99.90
21246;DHT22;10781;50.928;4.440;2023-02-01T15:34:57;10.20;99.90
21246;DHT22;10781;50.928;4.440;2023-02-01T15:37:23;10.30;99.90
21246;DHT22;10781;50.928;4.440;2023-02-01T15:42:55;10.30;99.90
21246;DHT22;10781;50.928;4.440;2023-02-01T15:45:25;10.30;99.90
21246;DHT22;10781;50.928;4.440;2023-02-01T15:47:53;10.30;99.90
21246;DHT22;10781;50.928;4.440;2023-02-01T15:50:21;10.10;99.90
21246;DHT22;10781;50.928;4.440;2023-02-01T15:52:49;10.20;99.90
21246;DHT22;10781;50.928;4.440;2023-02-01T15:57:59;10.10;99.90
21246;DHT22;10781;50.928;4.440;2023-02-01T16:00:30;10.10;99.90
21246;DHT22;10781;50.928;4.440;2023-02-01T16:03:05;10.10;99.90
21246;DHT22;10781;50.928;4.440;2023-02-01T16:05:40;10.00;99.90
21246;DHT22;10781;50.928;4.440;2023-02-01T16:08:20;10.10;99.90
21246;DHT22;10781;50.928;4.440;2023-02-01T16:10:50;10.10;99.90
21246;DHT22;10781;50.928;4.440;2023-02-01T16:13:17;10.00;99.90
21246;DHT22;10781;50.928;4.440;2023-02-01T16:15:43;9.90;99.90
21246;DHT22;10781;50.928;4.440;2023-02-01T16:18:11;9.90;99.90
21246;DHT22;10781;50.928;4.440;2023-02-01T16:20:39;9.90;99.90
21246;DHT22;10781;50.928;4.440;2023-02-01T16:23:06;10.00;99.90
21246;DHT22;10781;50.928;4.440;2023-02-01T16:25:32;10.00;99.90
21246;DHT22;10781;50.928;4.440;2023-02-01T16:27:57;9.80;99.90
21246;DHT22;10781;50.928;4.440;2023-02-01T16:30:23;9.70;99.90
21246;DHT22;10781;50.928;4.440;2023-02-01T16:33:00;9.70;99.90
21246;DHT22;10781;50.928;4.440;2023-02-01T16:35:36;9.80;99.90
21246;DHT22;10781;50.928;4.440;2023-02-01T16:38:03;9.80;99.90
21246;DHT22;10781;50.928;4.440;2023-02-01T16:40:34;9.80;99.90
21246;DHT22;10781;50.928;4.440;2023-02-01T16:43:00;9.80;99.90
21246;DHT22;10781;50.928;4.440;2023-02-01T16:45:26;9.80;99.90
21246;DHT22;10781;50.928;4.440;2023-02-01T16:47:54;9.80;99.90
21246;DHT22;10781;50.928;4.440;2023-02-01T16:50:24;9.70;99.90
21246;DHT22;10781;50.928;4.440;2023-02-01T16:52:52;9.80;99.90
21246;DHT22;10781;50.928;4.440;2023-02-01T16:55:19;9.80;99.90
21246;DHT22;10781;50.928;4.440;2023-02-01T16:57:46;9.70;99.90
21246;DHT22;10781;50.928;4.440;2023-02-01T17:00:12;9.80;99.90
21246;DHT22;10781;50.928;4.440;2023-02-01T17:02:39;9.80;99.90
21246;DHT22;10781;50.928;4.440;2023-02-01T17:05:05;9.80;99.90
21246;DHT22;10781;50.928;4.440;2023-02-01T17:07:31;9.90;99.90
21246;DHT22;10781;50.928;4.440;2023-02-01T17:09:57;9.80;99.90
21246;DHT22;10781;50.928;4.440;2023-02-01T17:12:28;9.70;99.90
21246;DHT22;10781;50.928;4.440;2023-02-01T17:14:55;9.60;99.90
21246;DHT22;10781;50.928;4.440;2023-02-01T17:17:21;9.60;99.90
21246;DHT22;10781;50.928;4.440;2023-02-01T17:19:50;9.60;99.90
21246;DHT22;10781;50.928;4.440;2023-02-01T17:22:19;9.70;99.90
21246;DHT22;10781;50.928;4.440;2023-02-01T17:24:45;9.60;99.90
21246;DHT22;10781;50.928;4.440;2023-02-01T17:27:11;9.50;99.90
21246;DHT22;10781;50.928;4.440;2023-02-01T17:29:37;9.60;99.90
21246;DHT22;10781;50.928;4.440;2023-02-01T17:32:03;9.50;99.90
21246;DHT22;10781;50.928;4.440;2023-02-01T17:34:29;9.60;99.90
21246;DHT22;10781;50.928;4.440;2023-02-01T17:36:55;9.60;99.90
21246;DHT22;10781;50.928;4.440;2023-02-01T17:39:21;9.70;99.90
21246;DHT22;10781;50.928;4.440;2023-02-01T17:42:10;9.70;99.90
21246;DHT22;10781;50.928;4.440;2023-02-01T17:44:36;9.60;99.90
21246;DHT22;10781;50.928;4.440;2023-02-01T17:47:02;9.60;99.90
21246;DHT22;10781;50.928;4.440;2023-02-01T17:49:27;9.60;99.90
21246;DHT22;10781;50.928;4.440;2023-02-01T17:51:54;9.40;99.90
21246;DHT22;10781;50.928;4.440;2023-02-01T17:54:20;9.40;99.90
21246;DHT22;10781;50.928;4.440;2023-02-01T17:56:46;9.40;99.90
21246;DHT22;10781;50.928;4.440;2023-02-01T17:59:13;9.30;99.90
21246;DHT22;10781;50.928;4.440;2023-02-01T18:01:40;9.40;99.90
21246;DHT22;10781;50.928;4.440;2023-02-01T18:04:08;9.40;99.90
21246;DHT22;10781;50.928;4.440;2023-02-01T18:06:35;9.40;99.90
21246;DHT22;10781;50.928;4.440;2023-02-01T18:09:01;9.50;99.90
21246;DHT22;10781;50.928;4.440;2023-02-01T18:11:27;9.50;99.90
21246;DHT22;10781;50.928;4.440;2023-02-01T18:13:57;9.40;99.90
21246;DHT22;10781;50.928;4.440;2023-02-01T18:16:25;9.40;99.90
21246;DHT22;10781;50.928;4.440;2023-02-01T18:18:51;9.40;99.90
21246;DHT22;10781;50.928;4.440;2023-02-01T18:21:19;9.40;99.90
21246;DHT22;10781;50.928;4.440;2023-02-01T18:23:46;9.30;99.90
21246;DHT22;10781;50.928;4.440;2023-02-01T18:26:14;9.30;99.90
21246;DHT22;10781;50.928;4.440;2023-02-01T18:28:41;9.20;99.90